createdAt,value
2017-06-12T00:02:10.787Z,4.68
2017-06-12T00:04:38.040Z,4.32
2017-06-12T00:07:05.231Z,3.76
2017-06-12T00:09:32.510Z,4.02
2017-06-12T00:11:59.821Z,4.58
2017-06-12T00:14:26.975Z,4.60
2017-06-12T00:16:54.227Z,4.26
2017-06-12T00:19:21.433Z,4.54
2017-06-12T00:21:48.683Z,4.92
2017-06-12T00:24:16.036Z,4.10
2017-06-12T00:26:43.247Z,3.96
2017-06-12T00:29:10.507Z,4.30
2017-06-12T00:31:37.760Z,4.50
2017-06-12T00:34:04.964Z,4.82
2017-06-12T00:36:32.234Z,4.48
2017-06-12T00:38:59.439Z,4.38
2017-06-12T00:41:26.590Z,6.20
2017-06-12T00:43:53.783Z,4.90
2017-06-12T00:46:21.101Z,4.78
2017-06-12T00:48:48.309Z,4.34
2017-06-12T00:51:15.487Z,5.08
2017-06-12T00:53:42.896Z,5.06
2017-06-12T00:56:10.020Z,4.54
2017-06-12T00:58:37.199Z,4.76
2017-06-12T01:01:04.426Z,5.00
2017-06-12T01:03:31.694Z,5.68
2017-06-12T01:05:58.900Z,5.56
2017-06-12T01:08:26.063Z,5.24
2017-06-12T01:10:53.257Z,5.14
2017-06-12T01:13:20.507Z,6.12
2017-06-12T01:15:47.647Z,6.08
2017-06-12T01:18:14.796Z,6.26
2017-06-12T01:20:41.983Z,6.60
2017-06-12T01:23:09.192Z,6.44
2017-06-12T01:25:36.443Z,6.48
2017-06-12T01:28:03.702Z,6.12
2017-06-12T01:30:30.927Z,6.92
2017-06-12T01:32:58.198Z,6.56
2017-06-12T01:35:25.360Z,6.26
2017-06-12T01:37:52.618Z,6.42
2017-06-12T01:40:19.807Z,7.40
2017-06-12T01:42:47.007Z,6.60
2017-06-12T01:45:14.223Z,6.92
2017-06-12T01:47:41.377Z,7.10
2017-06-12T01:50:08.616Z,6.90
2017-06-12T01:52:35.810Z,6.40
2017-06-12T01:55:02.982Z,7.88
2017-06-12T01:57:30.359Z,6.88
2017-06-12T01:59:57.577Z,6.86
2017-06-12T02:02:24.792Z,6.46
2017-06-12T02:04:52.105Z,6.68
2017-06-12T02:07:19.295Z,7.06
2017-06-12T02:09:46.519Z,7.68
2017-06-12T02:12:13.951Z,6.84
2017-06-12T02:14:41.153Z,6.70
2017-06-12T02:17:08.418Z,6.72
2017-06-12T02:19:35.591Z,6.98
2017-06-12T02:22:02.819Z,7.90
2017-06-12T02:24:30.016Z,7.14
2017-06-12T02:26:57.221Z,7.18
2017-06-12T02:29:24.444Z,7.90
2017-06-12T02:31:51.727Z,7.24
2017-06-12T02:34:18.964Z,7.78
2017-06-12T02:36:46.244Z,8.54
2017-06-12T02:39:13.435Z,6.88
2017-06-12T02:41:40.656Z,9.04
2017-06-12T02:44:07.808Z,7.30
2017-06-12T02:46:35.031Z,7.98
2017-06-12T02:49:02.278Z,7.50
2017-06-12T02:51:29.515Z,7.58
2017-06-12T02:53:56.696Z,7.70
2017-06-12T02:56:23.907Z,7.72
2017-06-12T02:58:51.091Z,7.80
2017-06-12T03:01:18.388Z,9.08
2017-06-12T03:03:45.563Z,8.64
2017-06-12T03:06:12.709Z,7.86
2017-06-12T03:08:39.957Z,7.82
2017-06-12T03:11:07.133Z,8.82
2017-06-12T03:13:34.338Z,8.22
2017-06-12T03:16:01.636Z,8.48
2017-06-12T03:18:28.824Z,8.64
2017-06-12T03:20:55.989Z,8.70
2017-06-12T03:23:23.222Z,7.34
2017-06-12T03:25:50.488Z,7.94
2017-06-12T03:28:17.695Z,7.86
2017-06-12T03:30:44.953Z,7.08
2017-06-12T03:33:12.152Z,6.62
2017-06-12T03:35:39.448Z,9.12
2017-06-12T03:38:06.678Z,7.80
2017-06-12T03:40:33.922Z,8.04
2017-06-12T03:43:01.123Z,10.86
2017-06-12T03:45:28.471Z,10.08
2017-06-12T03:47:55.639Z,9.38
2017-06-12T03:50:22.840Z,9.34
2017-06-12T03:52:50.020Z,9.16
2017-06-12T03:55:17.268Z,8.72
2017-06-12T03:57:44.464Z,8.90
2017-06-12T04:00:11.819Z,8.94
2017-06-12T04:02:39.027Z,9.60
2017-06-12T04:05:06.296Z,10.14
2017-06-12T04:07:33.567Z,9.14
2017-06-12T04:10:00.796Z,9.00
2017-06-12T04:12:28.032Z,9.30
2017-06-12T04:14:58.867Z,9.44
2017-06-12T04:17:26.071Z,8.56
2017-06-12T04:19:53.297Z,9.28
2017-06-12T04:22:20.544Z,8.26
2017-06-12T04:24:47.786Z,8.78
2017-06-12T04:27:14.931Z,8.72
2017-06-12T04:29:42.208Z,8.84
2017-06-12T04:32:09.387Z,8.78
2017-06-12T04:34:36.578Z,9.52
2017-06-12T04:37:03.764Z,8.72
2017-06-12T04:39:30.929Z,8.42
2017-06-12T04:41:58.371Z,9.28
2017-06-12T04:44:25.629Z,8.96
2017-06-12T04:46:52.810Z,9.28
2017-06-12T04:49:20.035Z,7.84
2017-06-12T04:51:47.271Z,9.30
2017-06-12T04:54:14.482Z,9.44
2017-06-12T04:56:41.714Z,10.52
2017-06-12T04:59:08.945Z,9.28
2017-06-12T05:01:36.218Z,9.72
2017-06-12T05:04:03.411Z,10.82
2017-06-12T05:06:30.680Z,8.04
2017-06-12T05:08:57.975Z,7.86
2017-06-12T05:11:25.232Z,7.36
2017-06-12T05:13:52.428Z,8.96
2017-06-12T05:16:19.749Z,8.86
2017-06-12T05:18:47.015Z,7.56
2017-06-12T05:21:14.230Z,8.02
2017-06-12T05:23:41.466Z,7.96
2017-06-12T05:26:08.835Z,7.68
2017-06-12T05:28:36.049Z,7.22
2017-06-12T05:31:03.442Z,7.78
2017-06-12T05:33:30.663Z,7.38
2017-06-12T05:35:57.981Z,8.18
2017-06-12T05:38:25.179Z,7.72
2017-06-12T05:40:52.412Z,8.00
2017-06-12T05:43:19.706Z,8.34
2017-06-12T05:45:46.932Z,9.08
2017-06-12T05:48:14.100Z,9.42
2017-06-12T05:50:41.255Z,9.06
2017-06-12T05:53:08.520Z,8.02
2017-06-12T05:55:35.727Z,7.66
2017-06-12T05:58:02.899Z,6.60
2017-06-12T06:00:30.180Z,7.66
2017-06-12T06:02:58.321Z,6.70
2017-06-12T06:05:25.539Z,7.84
2017-06-12T06:07:52.767Z,8.92
2017-06-12T06:10:19.998Z,8.54
2017-06-12T06:12:47.245Z,10.32
2017-06-12T06:15:14.408Z,7.62
2017-06-12T06:17:41.576Z,7.04
2017-06-12T06:20:08.806Z,7.48
2017-06-12T06:22:36.095Z,6.96
2017-06-12T06:25:03.263Z,6.18
2017-06-12T06:27:30.460Z,6.00
2017-06-12T06:29:57.652Z,6.34
2017-06-12T06:32:24.851Z,5.88
2017-06-12T06:34:52.101Z,6.68
2017-06-12T06:37:19.334Z,6.48
2017-06-12T06:39:47.523Z,5.68
2017-06-12T06:42:14.746Z,6.10
2017-06-12T06:44:41.951Z,5.30
2017-06-12T06:47:09.160Z,4.88
2017-06-12T06:49:36.371Z,4.92
2017-06-12T06:52:03.672Z,5.58
2017-06-12T06:54:30.927Z,5.48
2017-06-12T06:56:58.182Z,4.40
2017-06-12T06:59:25.384Z,3.94
2017-06-12T07:01:52.583Z,5.22
2017-06-12T07:04:19.781Z,5.06
2017-06-12T07:06:46.928Z,4.72
2017-06-12T07:09:14.119Z,4.98
2017-06-12T07:11:41.288Z,5.80
2017-06-12T07:14:08.518Z,4.56
2017-06-12T07:16:35.732Z,5.38
2017-06-12T07:19:02.908Z,4.90
2017-06-12T07:21:29.395Z,5.60
2017-06-12T07:23:56.068Z,4.24
2017-06-12T07:26:22.580Z,4.90
2017-06-12T07:28:49.007Z,5.70
2017-06-12T07:31:16.261Z,4.54
2017-06-12T07:33:43.482Z,5.92
2017-06-12T07:36:10.715Z,4.60
2017-06-12T07:38:37.988Z,4.40
2017-06-12T07:41:05.191Z,5.70
2017-06-12T07:43:32.475Z,4.86
2017-06-12T07:45:59.768Z,5.42
2017-06-12T07:48:26.962Z,4.88
2017-06-12T07:50:54.224Z,4.52
2017-06-12T07:53:21.424Z,5.00
2017-06-12T07:55:48.646Z,4.92
2017-06-12T07:58:16.012Z,4.80
2017-06-12T08:00:42.507Z,5.46
2017-06-12T08:03:09.687Z,5.20
2017-06-12T08:05:36.999Z,5.34
2017-06-12T08:08:04.271Z,5.24
2017-06-12T08:10:31.510Z,6.18
2017-06-12T08:12:58.751Z,5.20
2017-06-12T08:15:26.074Z,5.02
2017-06-12T08:17:53.332Z,6.46
2017-06-12T08:20:20.520Z,4.88
2017-06-12T08:22:47.792Z,4.88
2017-06-12T08:25:14.412Z,5.18
2017-06-12T08:27:41.611Z,5.98
2017-06-12T08:30:08.888Z,4.76
2017-06-12T08:32:36.143Z,6.10
2017-06-12T08:35:03.396Z,5.72
2017-06-12T08:37:29.869Z,5.80
2017-06-12T08:39:57.108Z,6.86
2017-06-12T08:42:24.374Z,4.88
2017-06-12T08:44:51.632Z,4.92
2017-06-12T08:47:18.826Z,4.30
2017-06-12T08:49:46.267Z,4.70
2017-06-12T08:52:13.583Z,4.60
2017-06-12T08:54:40.876Z,4.18
2017-06-12T08:57:08.087Z,4.58
2017-06-12T08:59:35.293Z,4.96
2017-06-12T09:02:02.696Z,3.48
2017-06-12T09:04:29.964Z,6.56
2017-06-12T09:06:57.191Z,4.14
2017-06-12T09:09:24.464Z,5.14
2017-06-12T09:11:51.735Z,4.08
2017-06-12T09:14:19.066Z,4.04
2017-06-12T09:16:46.390Z,4.32
2017-06-12T09:19:13.625Z,4.66
2017-06-12T09:21:40.905Z,4.08
2017-06-12T09:24:08.108Z,5.46
2017-06-12T09:26:34.636Z,6.12
2017-06-12T09:29:16.711Z,3.26
2017-06-12T09:31:44.048Z,3.40
2017-06-12T09:34:11.271Z,3.50
2017-06-12T09:36:38.552Z,5.46
2017-06-12T09:39:05.908Z,4.04
2017-06-12T09:41:33.158Z,4.56
2017-06-12T09:44:00.499Z,5.26
2017-06-12T09:46:27.681Z,3.68
2017-06-12T09:48:54.227Z,4.22
2017-06-12T09:51:21.566Z,4.30
2017-06-12T09:53:48.987Z,6.12
2017-06-12T09:56:16.300Z,4.28
2017-06-12T09:58:43.546Z,4.18
2017-06-12T10:01:10.918Z,6.08
2017-06-12T10:03:38.300Z,3.94
2017-06-12T10:06:04.778Z,4.08
2017-06-12T10:08:32.062Z,4.62
2017-06-12T10:10:59.385Z,5.86
2017-06-12T10:13:27.110Z,6.44
2017-06-12T10:15:54.802Z,4.74
2017-06-12T10:18:21.510Z,4.56
2017-06-12T10:20:48.832Z,4.62
2017-06-12T10:23:16.175Z,5.00
2017-06-12T10:25:43.423Z,5.62
2017-06-12T10:28:10.687Z,5.32
2017-06-12T10:30:37.989Z,5.32
2017-06-12T10:33:07.878Z,5.68
2017-06-12T10:35:34.680Z,6.20
2017-06-12T10:38:01.982Z,6.62
2017-06-12T10:40:29.238Z,6.16
2017-06-12T10:42:56.518Z,6.80
2017-06-12T10:45:23.792Z,6.38
2017-06-12T10:47:51.219Z,6.82
2017-06-12T10:50:18.562Z,6.76
2017-06-12T10:52:45.811Z,7.64
2017-06-12T10:55:13.052Z,8.16
2017-06-12T10:57:40.328Z,7.66
2017-06-12T11:00:07.654Z,7.86
2017-06-12T11:02:34.907Z,7.58
2017-06-12T11:05:01.487Z,7.34
2017-06-12T11:07:28.864Z,7.88
2017-06-12T11:09:55.367Z,7.58
2017-06-12T11:12:21.993Z,7.90
2017-06-12T11:14:49.264Z,7.88
2017-06-12T11:17:15.815Z,8.14
2017-06-12T11:19:43.083Z,8.50
2017-06-12T11:22:10.384Z,7.32
2017-06-12T11:24:39.663Z,8.56
2017-06-12T11:27:06.943Z,7.84
2017-06-12T11:29:38.023Z,9.00
2017-06-12T11:32:06.420Z,8.24
2017-06-12T11:34:33.817Z,8.14
2017-06-12T11:37:00.444Z,8.32
2017-06-12T11:39:27.768Z,7.62
2017-06-12T11:41:55.147Z,7.68
2017-06-12T11:44:22.570Z,7.50
2017-06-12T11:46:49.250Z,7.64
2017-06-12T11:49:16.660Z,4.82
2017-06-12T11:51:43.879Z,7.20
2017-06-12T11:54:11.129Z,6.90
2017-06-12T11:56:38.463Z,6.04
2017-06-12T11:59:05.678Z,7.68
2017-06-12T12:01:32.930Z,8.00
2017-06-12T12:04:00.270Z,7.12
2017-06-12T12:06:26.904Z,6.82
2017-06-12T12:08:54.345Z,6.30
2017-06-12T12:11:20.910Z,6.70
2017-06-12T12:13:48.201Z,6.02
2017-06-12T12:16:15.525Z,6.32
2017-06-12T12:18:43.771Z,6.40
2017-06-12T12:21:11.072Z,5.18
2017-06-12T12:23:38.528Z,5.24
2017-06-12T12:26:05.054Z,6.50
2017-06-12T12:28:32.456Z,5.74
2017-06-12T12:30:59.777Z,6.28
2017-06-12T12:33:27.028Z,5.14
2017-06-12T12:35:54.503Z,4.88
2017-06-12T12:38:21.066Z,5.68
2017-06-12T12:40:48.367Z,5.00
2017-06-12T12:43:15.774Z,6.28
2017-06-12T12:45:43.048Z,4.92
2017-06-12T12:48:10.463Z,4.88
2017-06-12T12:50:37.781Z,5.28
2017-06-12T12:53:04.972Z,5.14
2017-06-12T12:55:32.358Z,5.10
2017-06-12T12:57:59.621Z,4.84
2017-06-12T13:00:26.962Z,5.96
2017-06-12T13:02:54.345Z,5.56
2017-06-12T13:05:21.627Z,5.28
2017-06-12T13:07:48.887Z,5.88
2017-06-12T13:10:16.214Z,4.64
2017-06-12T13:12:43.616Z,5.20
2017-06-12T13:15:11.019Z,5.12
2017-06-12T13:17:37.579Z,5.60
2017-06-12T13:20:04.807Z,4.60
2017-06-12T13:22:32.191Z,4.04
2017-06-12T13:24:59.482Z,5.16
2017-06-12T13:27:26.787Z,4.42
2017-06-12T13:29:54.156Z,4.04
2017-06-12T13:32:21.402Z,3.34
2017-06-12T13:34:47.991Z,3.44
2017-06-12T13:37:15.270Z,3.32
2017-06-12T13:39:42.753Z,2.86
2017-06-12T13:42:09.335Z,3.10
2017-06-12T13:44:36.653Z,3.34
2017-06-12T13:47:04.053Z,3.86
2017-06-12T13:49:31.259Z,3.48
2017-06-12T13:51:58.531Z,3.74
2017-06-12T13:54:25.844Z,3.14
2017-06-12T13:56:53.113Z,3.52
2017-06-12T13:59:20.504Z,3.22
2017-06-12T14:01:47.200Z,2.06
2017-06-12T14:04:14.550Z,2.70
2017-06-12T14:06:41.833Z,3.28
2017-06-12T14:09:08.402Z,3.56
2017-06-12T14:11:35.663Z,2.70
2017-06-12T14:14:02.990Z,3.02
2017-06-12T14:16:30.304Z,4.46
2017-06-12T14:18:57.501Z,3.58
2017-06-12T14:21:24.753Z,5.96
2017-06-12T14:23:52.085Z,2.40
2017-06-12T14:26:34.189Z,4.30
2017-06-12T14:29:00.717Z,2.42
2017-06-12T14:32:02.063Z,2.80
2017-06-12T14:34:28.630Z,2.40
2017-06-12T14:36:55.160Z,2.10
2017-06-12T14:39:21.667Z,2.43
2017-06-12T14:41:48.213Z,3.10
2017-06-12T14:44:14.743Z,2.50
2017-06-12T14:46:41.235Z,2.17
2017-06-12T14:49:07.761Z,1.77
2017-06-12T14:51:34.696Z,3.07
2017-06-12T14:54:01.289Z,2.83
2017-06-12T14:56:27.788Z,7.43
2017-06-12T14:58:54.476Z,2.77
2017-06-12T15:01:20.998Z,3.03
2017-06-12T15:03:47.483Z,2.23
2017-06-12T15:06:14.037Z,3.57
2017-06-12T15:08:40.580Z,4.07
2017-06-12T15:11:07.113Z,3.20
2017-06-12T15:13:33.708Z,3.07
2017-06-12T15:16:00.510Z,4.13
2017-06-12T15:18:27.015Z,3.10
2017-06-12T15:20:53.485Z,4.20
2017-06-12T15:23:20.128Z,1.47
2017-06-12T15:25:46.699Z,2.50
2017-06-12T15:28:13.253Z,1.67
2017-06-12T15:30:39.946Z,1.80
2017-06-12T15:33:06.529Z,4.13
2017-06-12T15:35:33.054Z,3.93
2017-06-12T15:37:59.572Z,1.90
2017-06-12T15:40:26.185Z,2.60
2017-06-12T15:42:52.662Z,1.40
2017-06-12T15:45:19.207Z,2.20
2017-06-12T15:47:45.850Z,1.67
2017-06-12T15:50:12.404Z,1.40
2017-06-12T15:52:41.175Z,3.13
2017-06-12T15:55:07.824Z,1.30
2017-06-12T15:57:34.332Z,1.70
2017-06-12T16:00:01.560Z,2.07
2017-06-12T16:02:28.097Z,1.30
2017-06-12T16:04:54.792Z,2.07
2017-06-12T16:07:36.373Z,2.50
2017-06-12T16:10:03.091Z,1.40
2017-06-12T16:12:29.618Z,1.43
2017-06-12T16:14:56.210Z,2.50
2017-06-12T16:17:22.776Z,1.50
2017-06-12T16:19:50.181Z,2.47
2017-06-12T16:22:17.356Z,2.27
2017-06-12T16:24:44.039Z,2.57
2017-06-12T16:27:10.660Z,1.70
2017-06-12T16:29:38.849Z,2.83
2017-06-12T16:32:05.345Z,1.33
2017-06-12T16:34:31.948Z,1.20
2017-06-12T16:36:58.414Z,1.93
2017-06-12T16:39:24.917Z,1.47
2017-06-12T16:41:51.466Z,2.00
2017-06-12T16:44:17.945Z,0.90
2017-06-12T16:46:44.500Z,1.97
2017-06-12T16:49:11.045Z,2.50
2017-06-12T16:51:37.610Z,3.53
2017-06-12T16:54:04.154Z,2.10
2017-06-12T16:56:30.570Z,5.97
2017-06-12T16:58:57.056Z,1.90
2017-06-12T17:01:23.511Z,3.70
2017-06-12T17:03:50.037Z,1.50
2017-06-12T17:06:16.682Z,4.43
2017-06-12T17:08:43.144Z,2.83
2017-06-12T17:11:09.685Z,5.87
2017-06-12T17:13:36.409Z,4.17
2017-06-12T17:16:02.841Z,3.07
2017-06-12T17:18:29.342Z,7.77
2017-06-12T17:20:55.880Z,3.33
2017-06-12T17:23:22.612Z,2.80
2017-06-12T17:25:49.074Z,3.20
2017-06-12T17:28:15.684Z,2.93
2017-06-12T17:30:42.202Z,2.20
2017-06-12T17:33:08.813Z,4.47
2017-06-12T17:35:35.266Z,4.43
2017-06-12T17:38:01.762Z,3.80
2017-06-12T17:40:28.326Z,1.97
2017-06-12T17:42:54.818Z,3.17
2017-06-12T17:45:21.293Z,1.53
2017-06-12T17:47:47.856Z,1.63
2017-06-12T17:50:14.502Z,2.23
2017-06-12T17:52:41.654Z,4.03
2017-06-12T17:55:08.229Z,2.90
2017-06-12T17:57:35.065Z,3.03
2017-06-12T18:00:01.906Z,1.57
2017-06-12T18:02:28.365Z,3.17
2017-06-12T18:04:55.206Z,3.83
2017-06-12T18:07:21.852Z,1.77
2017-06-12T18:09:48.345Z,3.17
2017-06-12T18:12:14.876Z,3.10
2017-06-12T18:14:41.414Z,4.20
2017-06-12T18:17:07.941Z,1.40
2017-06-12T18:19:34.476Z,1.50
2017-06-12T18:22:01.029Z,1.77
2017-06-12T18:24:27.565Z,2.50
2017-06-12T18:26:54.085Z,2.17
2017-06-12T18:29:21.352Z,3.70
2017-06-12T18:31:48.054Z,2.07
2017-06-12T18:34:14.656Z,2.97
2017-06-12T18:36:41.230Z,2.10
2017-06-12T18:39:07.738Z,1.57
2017-06-12T18:41:34.635Z,1.50
2017-06-12T18:44:01.543Z,2.10
2017-06-12T18:46:28.104Z,3.10
2017-06-12T18:48:54.757Z,2.30
2017-06-12T18:51:21.304Z,2.40
2017-06-12T18:53:47.970Z,3.13
2017-06-12T18:56:14.587Z,3.10
2017-06-12T18:58:41.127Z,2.20
2017-06-12T19:01:07.674Z,1.30
2017-06-12T19:03:34.219Z,1.93
2017-06-12T19:06:00.869Z,1.73
2017-06-12T19:08:27.396Z,2.40
2017-06-12T19:10:54.145Z,3.43
2017-06-12T19:13:20.705Z,5.53
2017-06-12T19:15:47.203Z,3.00
2017-06-12T19:18:13.778Z,5.23
2017-06-12T19:20:40.406Z,4.60
2017-06-12T19:23:06.965Z,3.80
2017-06-12T19:25:33.505Z,2.13
2017-06-12T19:28:00.033Z,2.50
2017-06-12T19:30:26.699Z,2.83
2017-06-12T19:32:53.344Z,1.53
2017-06-12T19:35:19.854Z,2.27
2017-06-12T19:37:46.522Z,2.40
2017-06-12T19:40:13.120Z,2.80
2017-06-12T19:42:39.709Z,1.87
2017-06-12T19:45:06.327Z,2.60
2017-06-12T19:47:32.884Z,1.47
2017-06-12T19:49:59.436Z,1.23
2017-06-12T19:52:25.996Z,2.87
2017-06-12T19:54:52.537Z,2.67
2017-06-12T19:57:19.096Z,1.43
2017-06-12T19:59:45.636Z,2.23
2017-06-12T20:02:12.263Z,1.83
2017-06-12T20:04:38.887Z,1.80
2017-06-12T20:07:05.395Z,3.77
2017-06-12T20:09:31.918Z,3.43
2017-06-12T20:11:58.563Z,2.80
2017-06-12T20:14:25.092Z,2.10
2017-06-12T20:16:51.588Z,1.87
2017-06-12T20:19:18.830Z,1.87
2017-06-12T20:21:45.331Z,1.53
2017-06-12T20:24:11.893Z,2.30
2017-06-12T20:26:38.513Z,1.87
2017-06-12T20:29:05.138Z,5.43
2017-06-12T20:31:31.737Z,1.70
2017-06-12T20:33:58.400Z,2.70
2017-06-12T20:36:24.868Z,1.70
2017-06-12T20:38:51.389Z,2.83
2017-06-12T20:41:17.947Z,4.00
2017-06-12T20:43:44.601Z,4.27
2017-06-12T20:46:11.131Z,3.00
2017-06-12T20:48:37.704Z,3.70
2017-06-12T20:51:04.376Z,2.90
2017-06-12T20:53:30.943Z,1.63
2017-06-12T20:55:57.506Z,3.00
2017-06-12T20:58:24.015Z,3.97
2017-06-12T21:00:50.797Z,1.90
2017-06-12T21:03:17.299Z,2.07
2017-06-12T21:05:43.839Z,9.90
2017-06-12T21:08:10.407Z,2.20
2017-06-12T21:10:37.148Z,4.27
2017-06-12T21:13:03.706Z,3.20
2017-06-12T21:15:33.237Z,2.80
2017-06-12T21:17:59.754Z,4.30
2017-06-12T21:20:26.376Z,2.97
2017-06-12T21:22:52.969Z,2.43
2017-06-12T21:25:19.563Z,2.03
2017-06-12T21:27:46.190Z,2.87
2017-06-12T21:30:12.766Z,3.03
2017-06-12T21:32:39.271Z,2.20
2017-06-12T21:35:05.839Z,2.80
2017-06-12T21:37:32.412Z,2.50
2017-06-12T21:39:58.881Z,1.90
2017-06-12T21:42:25.581Z,2.60
2017-06-12T21:44:52.080Z,2.40
2017-06-12T21:47:18.651Z,2.40
2017-06-12T21:49:45.182Z,6.03
2017-06-12T21:52:11.658Z,3.10
2017-06-12T21:54:38.895Z,3.70
2017-06-12T21:57:05.726Z,3.47
2017-06-12T21:59:32.343Z,2.50
2017-06-12T22:01:58.924Z,2.53
2017-06-12T22:04:26.357Z,2.43
2017-06-12T22:06:52.911Z,2.10
2017-06-12T22:09:20.117Z,4.20
2017-06-12T22:11:46.751Z,2.30
2017-06-12T22:14:13.255Z,3.93
2017-06-12T22:16:39.919Z,4.63
2017-06-12T22:19:06.359Z,2.53
2017-06-12T22:21:32.883Z,4.60
2017-06-12T22:23:59.397Z,1.73
2017-06-12T22:26:25.916Z,2.70
2017-06-12T22:28:52.453Z,3.53
2017-06-12T22:31:18.929Z,2.97
2017-06-12T22:33:45.470Z,5.97
2017-06-12T22:36:12.021Z,2.60
2017-06-12T22:38:38.567Z,1.73
2017-06-12T22:41:05.205Z,2.37
2017-06-12T22:43:31.732Z,1.77
2017-06-12T22:45:58.204Z,5.77
2017-06-12T22:48:24.726Z,3.17
2017-06-12T22:50:51.954Z,3.43
2017-06-12T22:53:18.387Z,3.73
2017-06-12T22:55:44.873Z,3.03
2017-06-12T22:58:11.334Z,2.33
2017-06-12T23:00:37.818Z,2.97
2017-06-12T23:03:05.015Z,4.50
2017-06-12T23:05:31.512Z,3.93
2017-06-12T23:07:57.994Z,3.53
2017-06-12T23:10:24.498Z,2.67
2017-06-12T23:12:50.960Z,2.17
2017-06-12T23:15:17.427Z,2.60
2017-06-12T23:17:44.695Z,1.80
2017-06-12T23:20:11.124Z,2.53
2017-06-12T23:22:37.624Z,2.77
2017-06-12T23:25:04.073Z,3.00
2017-06-12T23:27:45.438Z,3.60
2017-06-12T23:30:11.881Z,3.60
2017-06-12T23:32:38.507Z,2.43
2017-06-12T23:35:05.010Z,2.93
2017-06-12T23:37:31.470Z,2.93
2017-06-12T23:39:57.930Z,4.00
2017-06-12T23:42:25.136Z,3.93
2017-06-12T23:44:51.556Z,3.70
2017-06-12T23:47:17.992Z,2.87
2017-06-12T23:49:44.519Z,6.30
2017-06-12T23:52:10.971Z,4.17
2017-06-12T23:54:37.410Z,3.73
2017-06-12T23:57:03.911Z,4.77
2017-06-12T23:59:30.363Z,3.43
